Terminal Aerodrome Forecast
Issued by NWS Houston/Galveston, TX

Home | Current Version | Previous Version | Text Only | Print | Product List | Glossary On
Versions: 1 2 3 4 5 6 7 8 9 10 11 12 13 14 15 16 17 18 19 20 21 22 23 24 25
000
FTUS44 KHGX 280901 AAC
TAFCLL
TAF AMD
KCLL 280901Z 2809/2906 19007KT P6SM OVC015
     FM281300 18010KT P6SM BKN019 OVC250
     FM281500 19011KT P6SM BKN025
     FM281700 17009KT P6SM SCT035
     FM282100 16008KT P6SM VCTS SCT040CB
      TEMPO 2821/2824 VRB10G25KT 5SM TSRA BKN030CB OVC050
     FM290400 15005KT P6SM VCSH SCT025 BKN050=

USA.gov is the U.S. government's official web portal to all federal, state and local government web resources and services.